avis per tempestes more information blitzortung!


avis per Pluja more information rain snow radar


Visita la nostra xarxa de llocs de meteo:

Template documentation
and downloads

And another site



Thunderstorms From: 18-09-2018 20:00 Until: 19-09-2018 10:59 warning for: Thunderstorms Level: Yellow info button
Rain From: 18-09-2018 20:00 Until: 19-09-2018 10:59 warning for: Rain Level: Yellow info button

Pagina Historial Weather Underground text

Diari Resum Juliol 1, 2017 Unitats:  Tant    Imperial   Mètric
« Previous Dia
SegĂźent Dia »
Diari Setmana Mensual Anual Personalitzada
  Maxima: Minima: Media:
Temperatura: TemperatureC °F /  -17.8 °C 15.2 °F /  -9.3 °C 20.8 °F /  -6.2 °C
Punt de rosada: DewpointC °F /  -17.8 °C 4.1 °F /  -15.5 °C 7.4 °F /  -13.7 °C
Humitat: Humidity % 30 % 42 %
Wind Speed: WindSpeedKMH mph /  0 km/h - 8.1 mph /  13 km/h
RĂ fegues de vent: WindSpeedGustKMH mph /  0 km/h - -
Vent:- - ESE
Pression baro: PressurehPa in /  0 hPa 1015.8 in /  34395 hPa -
Precipitacions: 0.0 in /  0 mm    
Historical Graphs
 
 
Dades de taula per Juliol 1, 2017
Temps Temperatura Punt de rosada Pression baro Vent Wind Speed RĂ fegues de vent Humitat Rainfall Rate (Hourly)
TemperatureC °F /  -17.8 °C DewpointC °F /  -17.8 °C PressurehPa in /  0 hPa Calm     Humidity % HourlyPrecipMM in /  0 mm
00:04 19.3 °F /  -7.1 °C 6.1 °F /  -14.4 °C 1015.8 in /  34395 hPa NNE 7.4 mph /  11.9 km/h 7.4 mph /  11.9 km/h 42 % 0.0 in /  0 mm
00:05 16.3 °F /  -8.7 °C 4.9 °F /  -15.1 °C 1015.8 in /  34395 hPa WSW 1.6 mph /  2.6 km/h 4.8 mph /  7.7 km/h 47 % 0.0 in /  0 mm
00:15 16.2 °F /  -8.8 °C 4.9 °F /  -15.1 °C 1015.8 in /  34395 hPa SW 1.6 mph /  2.6 km/h 4.8 mph /  7.7 km/h 47 % 0.0 in /  0 mm
00:25 16.1 °F /  -8.8 °C 4.8 °F /  -15.1 °C 1015.8 in /  34395 hPa WSW 1.6 mph /  2.6 km/h 3.2 mph /  5.1 km/h 47 % 0.0 in /  0 mm
00:35 15.9 °F /  -8.9 °C 4.6 °F /  -15.2 °C 1016.8 in /  34428.8 hPa WSW 1.6 mph /  2.6 km/h 3.2 mph /  5.1 km/h 47 % 0.0 in /  0 mm
00:45 15.8 °F /  -9 °C 4.5 °F /  -15.3 °C 1016.8 in /  34428.8 hPa WSW 4.8 mph /  7.7 km/h 6.4 mph /  10.3 km/h 47 % 0.0 in /  0 mm
00:55 15.8 °F /  -9 °C 4.5 °F /  -15.3 °C 1016.8 in /  34428.8 hPa WSW 4.8 mph /  7.7 km/h 6.4 mph /  10.3 km/h 47 % 0.0 in /  0 mm
01:05 15.7 °F /  -9.1 °C 4.4 °F /  -15.3 °C 1017.8 in /  34462.7 hPa WSW 4.8 mph /  7.7 km/h 6.4 mph /  10.3 km/h 47 % 0.0 in /  0 mm
01:15 15.6 °F /  -9.1 °C 4.3 °F /  -15.4 °C 1017.8 in /  34462.7 hPa WSW 3.2 mph /  5.1 km/h 4.8 mph /  7.7 km/h 47 % 0.0 in /  0 mm
01:25 15.6 °F /  -9.1 °C 4.3 °F /  -15.4 °C 1017.8 in /  34462.7 hPa SW 1.6 mph /  2.6 km/h 3.2 mph /  5.1 km/h 47 % 0.0 in /  0 mm
01:35 15.7 °F /  -9.1 °C 4.4 °F /  -15.3 °C 1017.8 in /  34462.7 hPa WSW 3.2 mph /  5.1 km/h 9.7 mph /  15.6 km/h 47 % 0.0 in /  0 mm
01:45 15.7 °F /  -9.1 °C 4.4 °F /  -15.3 °C 1017.8 in /  34462.7 hPa West 4.8 mph /  7.7 km/h 6.4 mph /  10.3 km/h 47 % 0.0 in /  0 mm
01:55 15.6 °F /  -9.1 °C 4.3 °F /  -15.4 °C 1016.8 in /  34428.8 hPa WSW 4.8 mph /  7.7 km/h 9.7 mph /  15.6 km/h 47 % 0.0 in /  0 mm
02:05 15.6 °F /  -9.1 °C 4.3 °F /  -15.4 °C 1016.8 in /  34428.8 hPa WSW 9.7 mph /  15.6 km/h 9.7 mph /  15.6 km/h 47 % 0.0 in /  0 mm
02:15 15.5 °F /  -9.2 °C 4.2 °F /  -15.4 °C 1016.8 in /  34428.8 hPa WSW 4.8 mph /  7.7 km/h 11.3 mph /  18.2 km/h 47 % 0.0 in /  0 mm
02:25 15.5 °F /  -9.2 °C 4.5 °F /  -15.3 °C 1017.8 in /  34462.7 hPa WSW 1.6 mph /  2.6 km/h 6.4 mph /  10.3 km/h 48 % 0.0 in /  0 mm
02:35 15.4 °F /  -9.2 °C 4.1 °F /  -15.5 °C 1016.8 in /  34428.8 hPa WSW 4.8 mph /  7.7 km/h 4.8 mph /  7.7 km/h 47 % 0.0 in /  0 mm
02:45 15.3 °F /  -9.3 °C 4.3 °F /  -15.4 °C 1016.8 in /  34428.8 hPa WSW 3.2 mph /  5.1 km/h 6.4 mph /  10.3 km/h 48 % 0.0 in /  0 mm
02:55 15.2 °F /  -9.3 °C 4.3 °F /  -15.4 °C 1017.8 in /  34462.7 hPa WSW 3.2 mph /  5.1 km/h 4.8 mph /  7.7 km/h 48 % 0.0 in /  0 mm
03:05 15.2 °F /  -9.3 °C 4.3 °F /  -15.4 °C 1016.8 in /  34428.8 hPa West 1.6 mph /  2.6 km/h 6.4 mph /  10.3 km/h 48 % 0.0 in /  0 mm
03:15 15.3 °F /  -9.3 °C 4.6 °F /  -15.2 °C 1016.8 in /  34428.8 hPa WNW 1.6 mph /  2.6 km/h 4.8 mph /  7.7 km/h 49 % 0.0 in /  0 mm
03:25 15.5 °F /  -9.2 °C 4.8 °F /  -15.1 °C 1017.8 in /  34462.7 hPa NW 4.8 mph /  7.7 km/h 4.8 mph /  7.7 km/h 49 % 0.0 in /  0 mm
03:35 15.9 °F /  -8.9 °C 5.2 °F /  -14.9 °C 1017.8 in /  34462.7 hPa WNW 3.2 mph /  5.1 km/h 6.4 mph /  10.3 km/h 49 % 0.0 in /  0 mm
03:45 16.2 °F /  -8.8 °C 5.4 °F /  -14.8 °C 1017.8 in /  34462.7 hPa West 3.2 mph /  5.1 km/h 4.8 mph /  7.7 km/h 49 % 0.0 in /  0 mm
03:55 16.4 °F /  -8.7 °C 5.7 °F /  -14.6 °C 1017.8 in /  34462.7 hPa West 3.2 mph /  5.1 km/h 6.4 mph /  10.3 km/h 49 % 0.0 in /  0 mm
04:05 17.0 °F /  -8.3 °C 5.9 °F /  -14.5 °C 1017.8 in /  34462.7 hPa West 3.2 mph /  5.1 km/h 3.2 mph /  5.1 km/h 48 % 0.0 in /  0 mm
04:15 17.5 °F /  -8.1 °C 6.3 °F /  -14.3 °C 1017.8 in /  34462.7 hPa West 4.8 mph /  7.7 km/h 4.8 mph /  7.7 km/h 48 % 0.0 in /  0 mm
04:25 17.9 °F /  -7.8 °C 6.4 °F /  -14.2 °C 1018.8 in /  34496.6 hPa WNW 3.2 mph /  5.1 km/h 4.8 mph /  7.7 km/h 47 % 0.0 in /  0 mm
04:35 18.7 °F /  -7.4 °C 7.2 °F /  -13.8 °C 1017.8 in /  34462.7 hPa WNW 3.2 mph /  5.1 km/h 6.4 mph /  10.3 km/h 47 % 0.0 in /  0 mm
04:45 18.6 °F /  -7.4 °C 7.1 °F /  -13.8 °C 1017.8 in /  34462.7 hPa WSW 3.2 mph /  5.1 km/h 6.4 mph /  10.3 km/h 47 % 0.0 in /  0 mm
04:55 18.8 °F /  -7.3 °C 6.9 °F /  -13.9 °C 1017.8 in /  34462.7 hPa WSW 4.8 mph /  7.7 km/h 4.8 mph /  7.7 km/h 46 % 0.0 in /  0 mm
09:57 19.2 °F /  -7.1 °C 6.9 °F /  -13.9 °C 1017.8 in /  34462.7 hPa West 7.4 mph /  11.9 km/h 7.4 mph /  11.9 km/h 45 % 0.0 in /  0 mm
10:02 19.2 °F /  -7.1 °C 6.9 °F /  -13.9 °C 1017.8 in /  34462.7 hPa WSW 11.1 mph /  17.9 km/h 11.1 mph /  17.9 km/h 45 % 0.0 in /  0 mm
10:03 19.2 °F /  -7.1 °C 6.9 °F /  -13.9 °C 1017.8 in /  34462.7 hPa WSW 11.1 mph /  17.9 km/h 11.1 mph /  17.9 km/h 45 % 0.0 in /  0 mm
10:08 19.4 °F /  -7 °C 7.2 °F /  -13.8 °C 1017.8 in /  34462.7 hPa WSW 7.4 mph /  11.9 km/h 7.4 mph /  11.9 km/h 45 % 0.0 in /  0 mm
10:13 19.3 °F /  -7.1 °C 7.1 °F /  -13.8 °C 1017.8 in /  34462.7 hPa NE 9.3 mph /  15 km/h 9.3 mph /  15 km/h 45 % 0.0 in /  0 mm
10:18 19.6 °F /  -6.9 °C 7.3 °F /  -13.7 °C 1017.8 in /  34462.7 hPa ENE 9.3 mph /  15 km/h 9.3 mph /  15 km/h 45 % 0.0 in /  0 mm
10:23 19.2 °F /  -7.1 °C 6.9 °F /  -13.9 °C 1017.8 in /  34462.7 hPa NNE 11.1 mph /  17.9 km/h 11.1 mph /  17.9 km/h 45 % 0.0 in /  0 mm
10:28 19.5 °F /  -6.9 °C 7.2 °F /  -13.8 °C 1017.8 in /  34462.7 hPa NE 10.3 mph /  16.6 km/h 10.3 mph /  16.6 km/h 45 % 0.0 in /  0 mm
10:33 19.7 °F /  -6.8 °C 7.4 °F /  -13.7 °C 1017.8 in /  34462.7 hPa ESE 9.3 mph /  15 km/h 9.3 mph /  15 km/h 45 % 0.0 in /  0 mm
10:38 20.0 °F /  -6.7 °C 7.7 °F /  -13.5 °C 1017.8 in /  34462.7 hPa ENE 7.4 mph /  11.9 km/h 7.4 mph /  11.9 km/h 45 % 0.0 in /  0 mm
10:43 20.2 °F /  -6.6 °C 7.6 °F /  -13.6 °C 1017.8 in /  34462.7 hPa SSE 9.3 mph /  15 km/h 9.3 mph /  15 km/h 44 % 0.0 in /  0 mm
10:48 20.2 °F /  -6.6 °C 7.6 °F /  -13.6 °C 1017.8 in /  34462.7 hPa ENE 11.1 mph /  17.9 km/h 11.1 mph /  17.9 km/h 44 % 0.0 in /  0 mm
10:53 20.2 °F /  -6.6 °C 7.6 °F /  -13.6 °C 1017.8 in /  34462.7 hPa ENE 9.3 mph /  15 km/h 9.3 mph /  15 km/h 44 % 0.0 in /  0 mm
10:58 20.2 °F /  -6.6 °C 7.6 °F /  -13.6 °C 1016.8 in /  34428.8 hPa NNE 9.3 mph /  15 km/h 9.3 mph /  15 km/h 44 % 0.0 in /  0 mm
11:03 20.1 °F /  -6.6 °C 7.4 °F /  -13.7 °C 1016.8 in /  34428.8 hPa ENE 9.5 mph /  15.3 km/h 9.5 mph /  15.3 km/h 44 % 0.0 in /  0 mm
11:08 20.5 °F /  -6.4 °C 7.8 °F /  -13.4 °C 1016.8 in /  34428.8 hPa ENE 7.2 mph /  11.6 km/h 7.2 mph /  11.6 km/h 44 % 0.0 in /  0 mm
11:10 20.2 °F /  -6.6 °C 7.2 °F /  -13.8 °C 1016.8 in /  34428.8 hPa NE 9.3 mph /  15 km/h 9.3 mph /  15 km/h 43 % 0.0 in /  0 mm
11:15 20.7 °F /  -6.3 °C 8.0 °F /  -13.3 °C 1017.8 in /  34462.7 hPa East 7.4 mph /  11.9 km/h 7.4 mph /  11.9 km/h 44 % 0.0 in /  0 mm
11:20 20.9 °F /  -6.2 °C 8.2 °F /  -13.2 °C 1017.8 in /  34462.7 hPa ENE 9.3 mph /  15 km/h 9.3 mph /  15 km/h 44 % 0.0 in /  0 mm
11:25 20.8 °F /  -6.2 °C 7.8 °F /  -13.4 °C 1017.8 in /  34462.7 hPa NE 13.0 mph /  20.9 km/h 13.0 mph /  20.9 km/h 43 % 0.0 in /  0 mm
11:30 21.2 °F /  -6 °C 7.8 °F /  -13.4 °C 1016.8 in /  34428.8 hPa NNE 13.0 mph /  20.9 km/h 13.0 mph /  20.9 km/h 42 % 0.0 in /  0 mm
11:35 21.5 °F /  -5.8 °C 8.1 °F /  -13.3 °C 1016.8 in /  34428.8 hPa ENE 9.3 mph /  15 km/h 9.3 mph /  15 km/h 42 % 0.0 in /  0 mm
11:40 21.3 °F /  -5.9 °C 7.9 °F /  -13.4 °C 1016.8 in /  34428.8 hPa SE 7.4 mph /  11.9 km/h 7.4 mph /  11.9 km/h 42 % 0.0 in /  0 mm
11:45 21.5 °F /  -5.8 °C 8.1 °F /  -13.3 °C 1017.8 in /  34462.7 hPa ESE 7.4 mph /  11.9 km/h 7.4 mph /  11.9 km/h 42 % 0.0 in /  0 mm
11:50 22.0 °F /  -5.6 °C 8.5 °F /  -13.1 °C 1017.8 in /  34462.7 hPa ESE 7.4 mph /  11.9 km/h 7.4 mph /  11.9 km/h 42 % 0.0 in /  0 mm
11:55 22.2 °F /  -5.4 °C 8.7 °F /  -12.9 °C 1017.8 in /  34462.7 hPa North 7.4 mph /  11.9 km/h 7.4 mph /  11.9 km/h 42 % 0.0 in /  0 mm
12:00 21.7 °F /  -5.7 °C 8.2 °F /  -13.2 °C 1016.8 in /  34428.8 hPa NE 10.0 mph /  16.1 km/h 10.0 mph /  16.1 km/h 42 % 0.0 in /  0 mm
12:05 21.9 °F /  -5.6 °C 8.4 °F /  -13.1 °C 1016.8 in /  34428.8 hPa NNE 5.8 mph /  9.3 km/h 5.8 mph /  9.3 km/h 42 % 0.0 in /  0 mm
12:10 22.6 °F /  -5.2 °C 8.7 °F /  -12.9 °C 1016.8 in /  34428.8 hPa ENE 7.6 mph /  12.2 km/h 7.6 mph /  12.2 km/h 41 % 0.0 in /  0 mm
12:15 23.1 °F /  -4.9 °C 8.8 °F /  -12.9 °C 1017.8 in /  34462.7 hPa West 9.3 mph /  15 km/h 9.3 mph /  15 km/h 40 % 0.0 in /  0 mm
12:20 23.1 °F /  -4.9 °C 8.8 °F /  -12.9 °C 1017.8 in /  34462.7 hPa SSE 5.6 mph /  9 km/h 5.6 mph /  9 km/h 40 % 0.0 in /  0 mm
12:25 23.6 °F /  -4.7 °C 9.2 °F /  -12.7 °C 1017.8 in /  34462.7 hPa SSE 5.6 mph /  9 km/h 5.6 mph /  9 km/h 40 % 0.0 in /  0 mm
12:30 23.6 °F /  -4.7 °C 8.8 °F /  -12.9 °C 1017.8 in /  34462.7 hPa ESE 5.6 mph /  9 km/h 5.6 mph /  9 km/h 39 % 0.0 in /  0 mm
12:35 23.6 °F /  -4.7 °C 8.8 °F /  -12.9 °C 1017.8 in /  34462.7 hPa ENE 4.2 mph /  6.8 km/h 4.7 mph /  7.6 km/h 39 % 0.0 in /  0 mm
12:40 24.1 °F /  -4.4 °C 9.7 °F /  -12.4 °C 1017.8 in /  34462.7 hPa NE 5.6 mph /  9 km/h 5.6 mph /  9 km/h 40 % 0.0 in /  0 mm
12:45 24.2 °F /  -4.3 °C 9.4 °F /  -12.6 °C 1017.8 in /  34462.7 hPa SSE 7.4 mph /  11.9 km/h 7.4 mph /  11.9 km/h 39 % 0.0 in /  0 mm
12:50 24.4 °F /  -4.2 °C 9.6 °F /  -12.4 °C 1017.8 in /  34462.7 hPa SW 7.4 mph /  11.9 km/h 7.4 mph /  11.9 km/h 39 % 0.0 in /  0 mm
12:55 24.1 °F /  -4.4 °C 8.9 °F /  -12.8 °C 1017.8 in /  34462.7 hPa North 3.7 mph /  6 km/h 3.7 mph /  6 km/h 38 % 0.0 in /  0 mm
13:00 24.8 °F /  -4 °C 9.5 °F /  -12.5 °C 1017.8 in /  34462.7 hPa East 9.5 mph /  15.3 km/h 9.5 mph /  15.3 km/h 38 % 0.0 in /  0 mm
13:05 24.4 °F /  -4.2 °C 8.8 °F /  -12.9 °C 1017.8 in /  34462.7 hPa ESE 9.3 mph /  15 km/h 9.3 mph /  15 km/h 37 % 0.0 in /  0 mm
13:10 24.3 °F /  -4.3 °C 9.1 °F /  -12.7 °C 1017.8 in /  34462.7 hPa NNE 11.1 mph /  17.9 km/h 11.1 mph /  17.9 km/h 38 % 0.0 in /  0 mm
13:15 24.4 °F /  -4.2 °C 8.8 °F /  -12.9 °C 1017.8 in /  34462.7 hPa East 7.4 mph /  11.9 km/h 7.4 mph /  11.9 km/h 37 % 0.0 in /  0 mm
13:20 25.4 °F /  -3.7 °C 9.2 °F /  -12.7 °C 1017.8 in /  34462.7 hPa SSW 8.7 mph /  14 km/h 8.7 mph /  14 km/h 36 % 0.0 in /  0 mm
13:25 25.3 °F /  -3.7 °C 8.7 °F /  -12.9 °C 1017.8 in /  34462.7 hPa SW 3.7 mph /  6 km/h 3.7 mph /  6 km/h 35 % 0.0 in /  0 mm
13:30 25.3 °F /  -3.7 °C 8.7 °F /  -12.9 °C 1017.8 in /  34462.7 hPa SW 5.6 mph /  9 km/h 5.6 mph /  9 km/h 35 % 0.0 in /  0 mm
13:35 26.1 °F /  -3.3 °C 9.4 °F /  -12.6 °C 1017.8 in /  34462.7 hPa WNW 5.6 mph /  9 km/h 5.6 mph /  9 km/h 35 % 0.0 in /  0 mm
13:40 25.6 °F /  -3.6 °C 8.6 °F /  -13 °C 1017.8 in /  34462.7 hPa WSW 11.1 mph /  17.9 km/h 11.1 mph /  17.9 km/h 34 % 0.0 in /  0 mm
13:45 25.4 °F /  -3.7 °C 8.4 °F /  -13.1 °C 1017.8 in /  34462.7 hPa West 5.6 mph /  9 km/h 5.6 mph /  9 km/h 34 % 0.0 in /  0 mm
13:50 25.1 °F /  -3.8 °C 7.7 °F /  -13.5 °C 1017.8 in /  34462.7 hPa South 7.4 mph /  11.9 km/h 7.4 mph /  11.9 km/h 33 % 0.0 in /  0 mm
13:56 25.4 °F /  -3.7 °C 7.1 °F /  -13.8 °C 1017.8 in /  34462.7 hPa NE 9.3 mph /  15 km/h 9.3 mph /  15 km/h 31 % 0.0 in /  0 mm
14:01 25.3 °F /  -3.7 °C 7.4 °F /  -13.7 °C 1017.8 in /  34462.7 hPa SW 7.4 mph /  11.9 km/h 7.4 mph /  11.9 km/h 32 % 0.0 in /  0 mm
14:06 25.6 °F /  -3.6 °C 7.2 °F /  -13.8 °C 1017.8 in /  34462.7 hPa ESE 9.7 mph /  15.6 km/h 9.7 mph /  15.6 km/h 31 % 0.0 in /  0 mm
14:11 25.1 °F /  -3.8 °C 7.2 °F /  -13.8 °C 1017.8 in /  34462.7 hPa NNE 5.6 mph /  9 km/h 5.6 mph /  9 km/h 32 % 0.0 in /  0 mm
14:16 25.5 °F /  -3.6 °C 7.6 °F /  -13.6 °C 1017.8 in /  34462.7 hPa WNW 7.4 mph /  11.9 km/h 7.4 mph /  11.9 km/h 32 % 0.0 in /  0 mm
14:21 25.8 °F /  -3.4 °C 7.4 °F /  -13.7 °C 1017.8 in /  34462.7 hPa East 7.4 mph /  11.9 km/h 7.4 mph /  11.9 km/h 31 % 0.0 in /  0 mm
14:26 25.5 °F /  -3.6 °C 7.1 °F /  -13.8 °C 1017.8 in /  34462.7 hPa South 7.4 mph /  11.9 km/h 7.4 mph /  11.9 km/h 31 % 0.0 in /  0 mm
14:31 25.8 °F /  -3.4 °C 7.4 °F /  -13.7 °C 1016.8 in /  34428.8 hPa WNW 5.6 mph /  9 km/h 5.6 mph /  9 km/h 31 % 0.0 in /  0 mm
14:36 26.2 °F /  -3.2 °C 7.7 °F /  -13.5 °C 1016.8 in /  34428.8 hPa WSW 5.0 mph /  8 km/h 5.0 mph /  8 km/h 31 % 0.0 in /  0 mm
14:41 26.0 °F /  -3.3 °C 7.6 °F /  -13.6 °C 1016.8 in /  34428.8 hPa WNW 5.6 mph /  9 km/h 5.6 mph /  9 km/h 31 % 0.0 in /  0 mm
14:46 25.7 °F /  -3.5 °C 6.8 °F /  -14 °C 1016.8 in /  34428.8 hPa NNE 5.3 mph /  8.5 km/h 5.3 mph /  8.5 km/h 30 % 0.0 in /  0 mm
14:51 25.8 °F /  -3.4 °C 6.9 °F /  -13.9 °C 1016.8 in /  34428.8 hPa ESE 4.7 mph /  7.6 km/h 4.7 mph /  7.6 km/h 30 % 0.0 in /  0 mm
14:56 25.4 °F /  -3.7 °C 6.6 °F /  -14.1 °C 1016.8 in /  34428.8 hPa ENE 5.8 mph /  9.3 km/h 5.8 mph /  9.3 km/h 30 % 0.0 in /  0 mm
15:01 25.3 °F /  -3.7 °C 6.9 °F /  -13.9 °C 1016.8 in /  34428.8 hPa ESE 9.3 mph /  15 km/h 9.3 mph /  15 km/h 31 % 0.0 in /  0 mm
15:06 24.7 °F /  -4.1 °C 6.9 °F /  -13.9 °C 1016.8 in /  34428.8 hPa ESE 9.3 mph /  15 km/h 9.3 mph /  15 km/h 32 % 0.0 in /  0 mm
15:11 24.8 °F /  -4 °C 7.4 °F /  -13.7 °C 1016.8 in /  34428.8 hPa ESE 16.9 mph /  27.2 km/h 16.9 mph /  27.2 km/h 33 % 0.0 in /  0 mm
15:16 24.1 °F /  -4.4 °C 6.8 °F /  -14 °C 1017.8 in /  34462.7 hPa ESE 20.4 mph /  32.8 km/h 20.4 mph /  32.8 km/h 33 % 0.0 in /  0 mm
15:21 23.8 °F /  -4.6 °C 7.0 °F /  -13.9 °C 1017.8 in /  34462.7 hPa ENE 16.7 mph /  26.9 km/h 16.7 mph /  26.9 km/h 34 % 0.0 in /  0 mm
15:26 23.5 °F /  -4.7 °C 7.2 °F /  -13.8 °C 1017.8 in /  34462.7 hPa ESE 17.2 mph /  27.7 km/h 17.2 mph /  27.7 km/h 35 % 0.0 in /  0 mm
15:31 23.3 °F /  -4.8 °C 6.9 °F /  -13.9 °C 1016.8 in /  34428.8 hPa East 16.7 mph /  26.9 km/h 16.7 mph /  26.9 km/h 35 % 0.0 in /  0 mm
15:36 23.3 °F /  -4.8 °C 7.4 °F /  -13.7 °C 1016.8 in /  34428.8 hPa ESE 16.9 mph /  27.2 km/h 16.9 mph /  27.2 km/h 36 % 0.0 in /  0 mm
15:41 23.4 °F /  -4.8 °C 7.5 °F /  -13.6 °C 1016.8 in /  34428.8 hPa East 11.1 mph /  17.9 km/h 11.1 mph /  17.9 km/h 36 % 0.0 in /  0 mm
15:46 23.4 °F /  -4.8 °C 7.5 °F /  -13.6 °C 1017.8 in /  34462.7 hPa East 11.1 mph /  17.9 km/h 11.1 mph /  17.9 km/h 36 % 0.0 in /  0 mm
15:51 23.2 °F /  -4.9 °C 7.7 °F /  -13.5 °C 1017.8 in /  34462.7 hPa SE 13.0 mph /  20.9 km/h 13.0 mph /  20.9 km/h 37 % 0.0 in /  0 mm
15:56 23.2 °F /  -4.9 °C 7.7 °F /  -13.5 °C 1017.8 in /  34462.7 hPa ENE 10.0 mph /  16.1 km/h 10.0 mph /  16.1 km/h 37 % 0.0 in /  0 mm
16:01 23.0 °F /  -5 °C 7.5 °F /  -13.6 °C 1017.8 in /  34462.7 hPa ESE 16.7 mph /  26.9 km/h 16.7 mph /  26.9 km/h 37 % 0.0 in /  0 mm
16:06 22.9 °F /  -5.1 °C 7.8 °F /  -13.4 °C 1017.8 in /  34462.7 hPa ESE 13.0 mph /  20.9 km/h 13.0 mph /  20.9 km/h 38 % 0.0 in /  0 mm
16:11 23.5 °F /  -4.7 °C 7.9 °F /  -13.4 °C 1017.8 in /  34462.7 hPa East 11.1 mph /  17.9 km/h 11.1 mph /  17.9 km/h 37 % 0.0 in /  0 mm
16:16 23.3 °F /  -4.8 °C 7.8 °F /  -13.4 °C 1017.8 in /  34462.7 hPa ESE 14.8 mph /  23.8 km/h 14.8 mph /  23.8 km/h 37 % 0.0 in /  0 mm
16:21 23.5 °F /  -4.7 °C 7.9 °F /  -13.4 °C 1017.8 in /  34462.7 hPa ESE 13.0 mph /  20.9 km/h 13.0 mph /  20.9 km/h 37 % 0.0 in /  0 mm
16:26 24.0 °F /  -4.4 °C 8.8 °F /  -12.9 °C 1017.8 in /  34462.7 hPa East 11.1 mph /  17.9 km/h 11.1 mph /  17.9 km/h 38 % 0.0 in /  0 mm
16:31 23.6 °F /  -4.7 °C 8.4 °F /  -13.1 °C 1017.8 in /  34462.7 hPa ENE 16.7 mph /  26.9 km/h 16.7 mph /  26.9 km/h 38 % 0.0 in /  0 mm
16:36 23.7 °F /  -4.6 °C 8.2 °F /  -13.2 °C 1017.8 in /  34462.7 hPa SE 13.0 mph /  20.9 km/h 13.0 mph /  20.9 km/h 37 % 0.0 in /  0 mm
16:41 23.7 °F /  -4.6 °C 8.2 °F /  -13.2 °C 1017.8 in /  34462.7 hPa ESE 17.2 mph /  27.7 km/h 17.2 mph /  27.7 km/h 37 % 0.0 in /  0 mm
16:46 23.3 °F /  -4.8 °C 8.2 °F /  -13.2 °C 1017.8 in /  34462.7 hPa ESE 14.8 mph /  23.8 km/h 14.8 mph /  23.8 km/h 38 % 0.0 in /  0 mm
16:51 23.1 °F /  -4.9 °C 8.0 °F /  -13.3 °C 1017.8 in /  34462.7 hPa East 14.8 mph /  23.8 km/h 14.8 mph /  23.8 km/h 38 % 0.0 in /  0 mm
16:56 23.3 °F /  -4.8 °C 8.2 °F /  -13.2 °C 1017.8 in /  34462.7 hPa ENE 9.3 mph /  15 km/h 9.3 mph /  15 km/h 38 % 0.0 in /  0 mm
17:01 23.2 °F /  -4.9 °C 8.1 °F /  -13.3 °C 1017.8 in /  34462.7 hPa ESE 13.0 mph /  20.9 km/h 13.0 mph /  20.9 km/h 38 % 0.0 in /  0 mm
17:06 23.2 °F /  -4.9 °C 8.1 °F /  -13.3 °C 1017.8 in /  34462.7 hPa ESE 9.7 mph /  15.6 km/h 9.7 mph /  15.6 km/h 38 % 0.0 in /  0 mm
17:11 23.1 °F /  -4.9 °C 8.0 °F /  -13.3 °C 1017.8 in /  34462.7 hPa ESE 14.8 mph /  23.8 km/h 14.8 mph /  23.8 km/h 38 % 0.0 in /  0 mm
17:16 22.9 °F /  -5.1 °C 8.2 °F /  -13.2 °C 1017.8 in /  34462.7 hPa NE 13.0 mph /  20.9 km/h 13.0 mph /  20.9 km/h 39 % 0.0 in /  0 mm
17:21 23.0 °F /  -5 °C 7.9 °F /  -13.4 °C 1017.8 in /  34462.7 hPa ENE 14.8 mph /  23.8 km/h 14.8 mph /  23.8 km/h 38 % 0.0 in /  0 mm
17:26 22.9 °F /  -5.1 °C 8.2 °F /  -13.2 °C 1017.8 in /  34462.7 hPa East 7.4 mph /  11.9 km/h 7.4 mph /  11.9 km/h 39 % 0.0 in /  0 mm
17:36 22.6 °F /  -5.2 °C 7.9 °F /  -13.4 °C 1017.8 in /  34462.7 hPa ESE 20.4 mph /  32.8 km/h 20.4 mph /  32.8 km/h 39 % 0.0 in /  0 mm
17:41 22.4 °F /  -5.3 °C 7.8 °F /  -13.4 °C 1017.8 in /  34462.7 hPa SSE 18.5 mph /  29.8 km/h 18.5 mph /  29.8 km/h 39 % 0.0 in /  0 mm
17:46 22.3 °F /  -5.4 °C 7.7 °F /  -13.5 °C 1017.8 in /  34462.7 hPa South 9.3 mph /  15 km/h 9.3 mph /  15 km/h 39 % 0.0 in /  0 mm
17:51 22.2 °F /  -5.4 °C 7.6 °F /  -13.6 °C 1017.8 in /  34462.7 hPa ESE 22.2 mph /  35.7 km/h 22.2 mph /  35.7 km/h 39 % 0.0 in /  0 mm
17:56 22.1 °F /  -5.5 °C 7.9 °F /  -13.4 °C 1017.8 in /  34462.7 hPa East 14.8 mph /  23.8 km/h 14.8 mph /  23.8 km/h 40 % 0.0 in /  0 mm
18:01 22.0 °F /  -5.6 °C 7.8 °F /  -13.4 °C 1017.8 in /  34462.7 hPa ESE 13.0 mph /  20.9 km/h 13.0 mph /  20.9 km/h 40 % 0.0 in /  0 mm
18:06 22.0 °F /  -5.6 °C 7.8 °F /  -13.4 °C 1017.8 in /  34462.7 hPa SE 16.7 mph /  26.9 km/h 16.7 mph /  26.9 km/h 40 % 0.0 in /  0 mm
18:11 21.9 °F /  -5.6 °C 7.7 °F /  -13.5 °C 1017.8 in /  34462.7 hPa NNE 13.0 mph /  20.9 km/h 13.0 mph /  20.9 km/h 40 % 0.0 in /  0 mm
18:16 21.9 °F /  -5.6 °C 7.7 °F /  -13.5 °C 1017.8 in /  34462.7 hPa ESE 14.8 mph /  23.8 km/h 14.8 mph /  23.8 km/h 40 % 0.0 in /  0 mm
18:21 21.6 °F /  -5.8 °C 7.4 °F /  -13.7 °C 1017.8 in /  34462.7 hPa NNE 15.8 mph /  25.4 km/h 15.8 mph /  25.4 km/h 40 % 0.0 in /  0 mm
18:26 21.6 °F /  -5.8 °C 7.8 °F /  -13.4 °C 1017.8 in /  34462.7 hPa ENE 11.1 mph /  17.9 km/h 11.1 mph /  17.9 km/h 41 % 0.0 in /  0 mm
18:31 21.3 °F /  -5.9 °C 7.5 °F /  -13.6 °C 1017.8 in /  34462.7 hPa ESE 13.0 mph /  20.9 km/h 13.0 mph /  20.9 km/h 41 % 0.0 in /  0 mm
18:36 21.2 °F /  -6 °C 7.4 °F /  -13.7 °C 1017.8 in /  34462.7 hPa East 9.3 mph /  15 km/h 9.3 mph /  15 km/h 41 % 0.0 in /  0 mm
18:41 21.2 °F /  -6 °C 7.4 °F /  -13.7 °C 1017.8 in /  34462.7 hPa East 11.1 mph /  17.9 km/h 11.1 mph /  17.9 km/h 41 % 0.0 in /  0 mm
18:46 21.2 °F /  -6 °C 7.4 °F /  -13.7 °C 1017.8 in /  34462.7 hPa NNE 13.0 mph /  20.9 km/h 13.0 mph /  20.9 km/h 41 % 0.0 in /  0 mm
18:51 21.2 °F /  -6 °C 7.4 °F /  -13.7 °C 1017.8 in /  34462.7 hPa WNW 7.4 mph /  11.9 km/h 7.4 mph /  11.9 km/h 41 % 0.0 in /  0 mm
18:56 21.1 °F /  -6.1 °C 7.3 °F /  -13.7 °C 1017.8 in /  34462.7 hPa East 12.2 mph /  19.6 km/h 12.2 mph /  19.6 km/h 41 % 0.0 in /  0 mm
19:01 21.0 °F /  -6.1 °C 7.2 °F /  -13.8 °C 1017.8 in /  34462.7 hPa NE 13.0 mph /  20.9 km/h 13.0 mph /  20.9 km/h 41 % 0.0 in /  0 mm
19:06 20.9 °F /  -6.2 °C 7.5 °F /  -13.6 °C 1017.8 in /  34462.7 hPa North 11.1 mph /  17.9 km/h 11.1 mph /  17.9 km/h 42 % 0.0 in /  0 mm
19:11 21.0 °F /  -6.1 °C 7.6 °F /  -13.6 °C 1018.8 in /  34496.6 hPa ENE 10.0 mph /  16.1 km/h 10.0 mph /  16.1 km/h 42 % 0.0 in /  0 mm
19:16 20.8 °F /  -6.2 °C 7.4 °F /  -13.7 °C 1018.8 in /  34496.6 hPa NE 11.1 mph /  17.9 km/h 11.1 mph /  17.9 km/h 42 % 0.0 in /  0 mm
19:18 20.8 °F /  -6.2 °C 7.8 °F /  -13.4 °C 1018.8 in /  34496.6 hPa NNE 7.4 mph /  11.9 km/h 7.4 mph /  11.9 km/h 43 % 0.0 in /  0 mm
19:23 20.7 °F /  -6.3 °C 7.7 °F /  -13.5 °C 1018.8 in /  34496.6 hPa NNE 11.4 mph /  18.3 km/h 11.4 mph /  18.3 km/h 43 % 0.0 in /  0 mm
19:28 20.7 °F /  -6.3 °C 7.7 °F /  -13.5 °C 1018.8 in /  34496.6 hPa East 13.0 mph /  20.9 km/h 13.0 mph /  20.9 km/h 43 % 0.0 in /  0 mm
19:33 20.6 °F /  -6.3 °C 7.6 °F /  -13.6 °C 1018.8 in /  34496.6 hPa North 9.3 mph /  15 km/h 9.3 mph /  15 km/h 43 % 0.0 in /  0 mm
19:38 20.6 °F /  -6.3 °C 7.6 °F /  -13.6 °C 1018.8 in /  34496.6 hPa ESE 9.3 mph /  15 km/h 9.3 mph /  15 km/h 43 % 0.0 in /  0 mm
19:43 20.5 °F /  -6.4 °C 7.5 °F /  -13.6 °C 1018.8 in /  34496.6 hPa NNE 13.0 mph /  20.9 km/h 13.0 mph /  20.9 km/h 43 % 0.0 in /  0 mm
19:48 20.4 °F /  -6.4 °C 7.1 °F /  -13.8 °C 1018.8 in /  34496.6 hPa ENE 11.1 mph /  17.9 km/h 11.1 mph /  17.9 km/h 42 % 0.0 in /  0 mm
19:53 20.4 °F /  -6.4 °C 7.4 °F /  -13.7 °C 1018.8 in /  34496.6 hPa NNE 11.1 mph /  17.9 km/h 11.1 mph /  17.9 km/h 43 % 0.0 in /  0 mm
19:58 20.3 °F /  -6.5 °C 7.3 °F /  -13.7 °C 1018.8 in /  34496.6 hPa NE 7.9 mph /  12.7 km/h 7.9 mph /  12.7 km/h 43 % 0.0 in /  0 mm
20:03 20.3 °F /  -6.5 °C 7.3 °F /  -13.7 °C 1018.8 in /  34496.6 hPa North 7.4 mph /  11.9 km/h 7.4 mph /  11.9 km/h 43 % 0.0 in /  0 mm
20:08 20.3 °F /  -6.5 °C 7.7 °F /  -13.5 °C 1018.8 in /  34496.6 hPa ENE 9.3 mph /  15 km/h 9.3 mph /  15 km/h 44 % 0.0 in /  0 mm
20:13 20.2 °F /  -6.6 °C 7.6 °F /  -13.6 °C 1018.8 in /  34496.6 hPa NE 9.3 mph /  15 km/h 9.3 mph /  15 km/h 44 % 0.0 in /  0 mm
20:18 20.1 °F /  -6.6 °C 7.4 °F /  -13.7 °C 1018.8 in /  34496.6 hPa ENE 9.3 mph /  15 km/h 9.3 mph /  15 km/h 44 % 0.0 in /  0 mm
20:23 20.1 °F /  -6.6 °C 7.8 °F /  -13.4 °C 1018.8 in /  34496.6 hPa East 13.0 mph /  20.9 km/h 13.0 mph /  20.9 km/h 45 % 0.0 in /  0 mm
20:28 20.2 °F /  -6.6 °C 7.9 °F /  -13.4 °C 1018.8 in /  34496.6 hPa East 9.3 mph /  15 km/h 9.3 mph /  15 km/h 45 % 0.0 in /  0 mm
20:33 20.1 °F /  -6.6 °C 7.8 °F /  -13.4 °C 1018.8 in /  34496.6 hPa ENE 7.4 mph /  11.9 km/h 7.4 mph /  11.9 km/h 45 % 0.0 in /  0 mm
20:38 20.0 °F /  -6.7 °C 7.7 °F /  -13.5 °C 1018.8 in /  34496.6 hPa ENE 7.4 mph /  11.9 km/h 7.4 mph /  11.9 km/h 45 % 0.0 in /  0 mm
20:43 19.9 °F /  -6.7 °C 7.6 °F /  -13.6 °C 1019.9 in /  34533.8 hPa ENE 9.3 mph /  15 km/h 9.3 mph /  15 km/h 45 % 0.0 in /  0 mm
20:48 19.9 °F /  -6.7 °C 7.9 °F /  -13.4 °C 1019.9 in /  34533.8 hPa ENE 9.3 mph /  15 km/h 9.3 mph /  15 km/h 46 % 0.0 in /  0 mm
20:53 19.9 °F /  -6.7 °C 7.9 °F /  -13.4 °C 1019.9 in /  34533.8 hPa ESE 9.3 mph /  15 km/h 9.3 mph /  15 km/h 46 % 0.0 in /  0 mm
20:58 19.9 °F /  -6.7 °C 7.9 °F /  -13.4 °C 1018.8 in /  34496.6 hPa NNE 6.4 mph /  10.3 km/h 6.4 mph /  10.3 km/h 46 % 0.0 in /  0 mm
21:03 19.8 °F /  -6.8 °C 7.8 °F /  -13.4 °C 1018.8 in /  34496.6 hPa ENE 9.3 mph /  15 km/h 9.3 mph /  15 km/h 46 % 0.0 in /  0 mm
21:08 19.8 °F /  -6.8 °C 7.8 °F /  -13.4 °C 1018.8 in /  34496.6 hPa ENE 5.6 mph /  9 km/h 5.6 mph /  9 km/h 46 % 0.0 in /  0 mm
21:13 19.8 °F /  -6.8 °C 7.8 °F /  -13.4 °C 1019.9 in /  34533.8 hPa ENE 5.6 mph /  9 km/h 5.6 mph /  9 km/h 46 % 0.0 in /  0 mm
21:18 19.7 °F /  -6.8 °C 8.1 °F /  -13.3 °C 1019.9 in /  34533.8 hPa North 5.6 mph /  9 km/h 5.6 mph /  9 km/h 47 % 0.0 in /  0 mm
21:23 19.7 °F /  -6.8 °C 8.1 °F /  -13.3 °C 1019.9 in /  34533.8 hPa NNE 5.6 mph /  9 km/h 5.6 mph /  9 km/h 47 % 0.0 in /  0 mm
21:28 19.6 °F /  -6.9 °C 8.0 °F /  -13.3 °C 1019.9 in /  34533.8 hPa NE 7.4 mph /  11.9 km/h 7.4 mph /  11.9 km/h 47 % 0.0 in /  0 mm
21:33 19.6 °F /  -6.9 °C 8.0 °F /  -13.3 °C 1019.9 in /  34533.8 hPa East 7.4 mph /  11.9 km/h 7.4 mph /  11.9 km/h 47 % 0.0 in /  0 mm
21:38 19.6 °F /  -6.9 °C 8.0 °F /  -13.3 °C 1019.9 in /  34533.8 hPa ENE 5.8 mph /  9.3 km/h 5.8 mph /  9.3 km/h 47 % 0.0 in /  0 mm
21:43 19.5 °F /  -6.9 °C 7.9 °F /  -13.4 °C 1019.9 in /  34533.8 hPa NE 5.8 mph /  9.3 km/h 5.8 mph /  9.3 km/h 47 % 0.0 in /  0 mm
21:48 19.5 °F /  -6.9 °C 7.9 °F /  -13.4 °C 1019.9 in /  34533.8 hPa ENE 6.1 mph /  9.8 km/h 6.1 mph /  9.8 km/h 47 % 0.0 in /  0 mm
21:53 19.5 °F /  -6.9 °C 7.9 °F /  -13.4 °C 1019.9 in /  34533.8 hPa North 4.7 mph /  7.6 km/h 4.7 mph /  7.6 km/h 47 % 0.0 in /  0 mm
21:58 19.5 °F /  -6.9 °C 7.9 °F /  -13.4 °C 1019.9 in /  34533.8 hPa ESE 7.4 mph /  11.9 km/h 7.4 mph /  11.9 km/h 47 % 0.0 in /  0 mm
22:03 19.5 °F /  -6.9 °C 8.2 °F /  -13.2 °C 1019.9 in /  34533.8 hPa ESE 7.4 mph /  11.9 km/h 7.4 mph /  11.9 km/h 48 % 0.0 in /  0 mm
22:08 19.5 °F /  -6.9 °C 7.9 °F /  -13.4 °C 1019.9 in /  34533.8 hPa ENE 3.7 mph /  6 km/h 3.7 mph /  6 km/h 47 % 0.0 in /  0 mm
22:13 19.4 °F /  -7 °C 8.1 °F /  -13.3 °C 1019.9 in /  34533.8 hPa ENE 5.6 mph /  9 km/h 5.6 mph /  9 km/h 48 % 0.0 in /  0 mm
22:18 19.4 °F /  -7 °C 8.1 °F /  -13.3 °C 1019.9 in /  34533.8 hPa East 5.6 mph /  9 km/h 5.6 mph /  9 km/h 48 % 0.0 in /  0 mm
22:23 19.4 °F /  -7 °C 8.1 °F /  -13.3 °C 1019.9 in /  34533.8 hPa ENE 5.6 mph /  9 km/h 5.6 mph /  9 km/h 48 % 0.0 in /  0 mm
22:28 19.3 °F /  -7.1 °C 8.0 °F /  -13.3 °C 1019.9 in /  34533.8 hPa East 3.7 mph /  6 km/h 3.7 mph /  6 km/h 48 % 0.0 in /  0 mm
22:33 19.3 °F /  -7.1 °C 8.0 °F /  -13.3 °C 1019.9 in /  34533.8 hPa ENE 3.9 mph /  6.3 km/h 3.9 mph /  6.3 km/h 48 % 0.0 in /  0 mm
22:38 19.3 °F /  -7.1 °C 8.0 °F /  -13.3 °C 1019.9 in /  34533.8 hPa East 3.7 mph /  6 km/h 3.7 mph /  6 km/h 48 % 0.0 in /  0 mm
22:43 19.3 °F /  -7.1 °C 8.0 °F /  -13.3 °C 1019.9 in /  34533.8 hPa NE 3.7 mph /  6 km/h 3.7 mph /  6 km/h 48 % 0.0 in /  0 mm
22:48 19.2 °F /  -7.1 °C 7.9 °F /  -13.4 °C 1019.9 in /  34533.8 hPa ENE 3.7 mph /  6 km/h 3.7 mph /  6 km/h 48 % 0.0 in /  0 mm
22:53 19.2 °F /  -7.1 °C 7.9 °F /  -13.4 °C 1019.9 in /  34533.8 hPa NE 3.7 mph /  6 km/h 3.7 mph /  6 km/h 48 % 0.0 in /  0 mm
22:58 19.2 °F /  -7.1 °C 7.9 °F /  -13.4 °C 1019.9 in /  34533.8 hPa NE 1.9 mph /  3.1 km/h   48 % 0.0 in /  0 mm
23:03 19.2 °F /  -7.1 °C 7.9 °F /  -13.4 °C 1019.9 in /  34533.8 hPa NE 2.3 mph /  3.7 km/h 2.3 mph /  3.7 km/h 48 % 0.0 in /  0 mm
23:08 19.2 °F /  -7.1 °C 7.9 °F /  -13.4 °C 1019.9 in /  34533.8 hPa Calm     48 % 0.0 in /  0 mm
23:13 19.1 °F /  -7.2 °C 8.1 °F /  -13.3 °C 1020.9 in /  34567.7 hPa NNE 1.9 mph /  3.1 km/h   49 % 0.0 in /  0 mm
23:18 19.1 °F /  -7.2 °C 8.1 °F /  -13.3 °C 1020.9 in /  34567.7 hPa East 3.2 mph /  5.1 km/h 3.2 mph /  5.1 km/h 49 % 0.0 in /  0 mm
23:23 19.1 °F /  -7.2 °C 8.1 °F /  -13.3 °C 1020.9 in /  34567.7 hPa Calm     49 % 0.0 in /  0 mm
23:28 19.0 °F /  -7.2 °C 8.1 °F /  -13.3 °C 1020.9 in /  34567.7 hPa WNW 1.9 mph /  3.1 km/h 1.9 mph /  3.1 km/h 49 % 0.0 in /  0 mm
23:33 19.0 °F /  -7.2 °C 8.1 °F /  -13.3 °C 1020.9 in /  34567.7 hPa Calm     49 % 0.0 in /  0 mm
23:38 19.0 °F /  -7.2 °C 8.1 °F /  -13.3 °C 1020.9 in /  34567.7 hPa Calm     49 % 0.0 in /  0 mm
23:43 19.0 °F /  -7.2 °C 8.1 °F /  -13.3 °C 1020.9 in /  34567.7 hPa Calm     49 % 0.0 in /  0 mm
23:48 19.0 °F /  -7.2 °C 8.1 °F /  -13.3 °C 1020.9 in /  34567.7 hPa NNE 1.9 mph /  3.1 km/h   49 % 0.0 in /  0 mm
23:53 19.0 °F /  -7.2 °C 8.1 °F /  -13.3 °C 1020.9 in /  34567.7 hPa Calm     49 % 0.0 in /  0 mm
23:58 19.0 °F /  -7.2 °C 8.1 °F /  -13.3 °C 1019.9 in /  34533.8 hPa NNE 3.7 mph /  6 km/h 3.7 mph /  6 km/h 49 % 0.0 in /  0 mm
Meteo Sesrovires
Elogis d' Weather Underground - 1.5 mb

Guio original per  Jim McMurry - jmcmurry@mwt.net Adaptat per a la plantilla per  Wim van der Kuil - Leuven-Template.eu

Trobareu la nostra informacio del temps tambe a:

Weather Underground

AWEKAS